Time;durP1;ratioP1;P1;durP2;ratioP2;P2;SDS_P1;SDS_P2;PMS_P1;PMS_P2;Temp;Humidity;BMP_temperature;BMP_pressure;BME280_temperature;BME280_humidity;BME280_pressure;Samples;Min_cycle;Max_cycle;Signal;HPM_P1;HPM_P2
2023/08/12 00:02:07;;;;;;;8.70;6.00;;;;;;;19.51;100.00;100263.78;5036282;28;20659;-69
2023/08/12 00:04:33;;;;;;;6.50;5.90;;;;;;;19.46;100.00;100265.16;5031647;28;20186;-69
2023/08/12 00:06:58;;;;;;;7.07;6.47;;;;;;;19.51;100.00;100265.56;5030790;28;20186;-69
2023/08/12 00:09:23;;;;;;;7.83;6.27;;;;;;;19.55;100.00;100258.28;5032131;28;20178;-68
2023/08/12 00:11:48;;;;;;;8.03;6.47;;;;;;;19.66;100.00;100256.34;5021958;28;20226;-69
2023/08/12 00:14:14;;;;;;;7.70;6.37;;;;;;;19.77;100.00;100257.16;5031416;28;20177;-69
2023/08/12 00:16:39;;;;;;;6.83;6.20;;;;;;;19.80;100.00;100256.91;5031527;28;20273;-67
2023/08/12 00:19:04;;;;;;;6.93;6.13;;;;;;;19.84;100.00;100259.09;5031999;28;20665;-69
2023/08/12 00:21:29;;;;;;;11.20;6.27;;;;;;;19.89;100.00;100253.47;5032410;28;20221;-67
2023/08/12 00:23:55;;;;;;;6.67;5.90;;;;;;;19.89;100.00;100247.44;5030463;28;20182;-68
2023/08/12 00:26:20;;;;;;;6.97;6.27;;;;;;;19.95;100.00;100244.25;5031124;28;20227;-68
2023/08/12 00:28:48;;;;;;;8.50;5.90;;;;;;;19.94;100.00;100240.81;5031878;28;20268;-68
2023/08/12 00:31:14;;;;;;;8.20;6.47;;;;;;;19.88;100.00;100230.91;5030357;28;20288;-69
2023/08/12 00:33:39;;;;;;;10.47;6.47;;;;;;;19.80;100.00;100231.59;5035427;28;20257;-67
2023/08/12 00:36:05;;;;;;;10.93;6.60;;;;;;;19.93;100.00;100233.13;5024103;28;20266;-67
2023/08/12 00:38:30;;;;;;;6.80;6.20;;;;;;;19.94;100.00;100232.16;5030441;28;20256;-67
2023/08/12 00:40:55;;;;;;;6.80;5.60;;;;;;;19.99;100.00;100227.34;5027057;28;20229;-68
2023/08/12 00:43:20;;;;;;;6.57;5.87;;;;;;;20.04;100.00;100224.31;5040009;28;20182;-68
2023/08/12 00:45:47;;;;;;;8.57;5.93;;;;;;;20.08;100.00;100223.03;5030713;28;20173;-68
2023/08/12 00:48:12;;;;;;;8.93;5.87;;;;;;;20.08;100.00;100226.50;5031782;28;20536;-68
2023/08/12 00:50:39;;;;;;;8.10;5.40;;;;;;;20.08;100.00;100221.28;5024743;28;20393;-68
2023/08/12 00:53:07;;;;;;;8.53;5.10;;;;;;;20.12;100.00;100216.59;5041884;28;20186;-67
2023/08/12 00:55:33;;;;;;;9.10;5.63;;;;;;;20.15;100.00;100219.72;5030815;28;20268;-68
2023/08/12 00:57:59;;;;;;;8.30;5.83;;;;;;;20.14;100.00;100219.84;5030410;28;20293;-68
2023/08/12 01:00:25;;;;;;;6.27;4.73;;;;;;;20.13;100.00;100224.28;5021991;28;20657;-68
2023/08/12 01:02:51;;;;;;;7.43;5.63;;;;;;;20.14;100.00;100222.47;5043489;28;20504;-69
2023/08/12 01:05:17;;;;;;;6.07;5.13;;;;;;;20.09;100.00;100219.47;5030841;28;20218;-68
2023/08/12 01:07:42;;;;;;;5.10;4.43;;;;;;;20.08;100.00;100220.44;5029894;28;20174;-68
2023/08/12 01:10:14;;;;;;;8.63;5.10;;;;;;;20.01;100.00;100220.19;5021525;28;20193;-68
2023/08/12 01:13:11;;;;;;;7.77;5.47;;;;;;;19.87;100.00;100211.03;5038966;28;20199;-69
2023/08/12 01:15:38;;;;;;;7.37;5.00;;;;;;;20.00;100.00;100223.75;5023529;28;20233;-68
2023/08/12 01:18:06;;;;;;;6.47;5.20;;;;;;;19.98;100.00;100229.13;5031056;28;20302;-68
2023/08/12 01:20:32;;;;;;;5.77;5.00;;;;;;;19.94;100.00;100237.38;5024603;28;20680;-68
2023/08/12 01:23:11;;;;;;;10.13;6.10;;;;;;;19.82;100.00;100240.13;5042236;28;20228;-69
2023/08/12 01:25:36;;;;;;;6.60;5.90;;;;;;;19.84;100.00;100237.41;5019555;28;20182;-68
2023/08/12 01:28:01;;;;;;;8.33;5.33;;;;;;;19.86;100.00;100243.31;5030773;28;20205;-68
2023/08/12 01:30:27;;;;;;;7.67;5.13;;;;;;;19.87;100.00;100234.53;5024079;28;20260;-68
2023/08/12 01:33:26;;;;;;;6.67;5.27;;;;;;;19.76;100.00;100232.84;5042601;28;20201;-68
2023/08/12 01:36:00;;;;;;;6.27;5.67;;;;;;;19.67;100.00;100224.09;5008167;28;20269;-68
2023/08/12 01:38:27;;;;;;;5.60;5.10;;;;;;;19.70;100.00;100222.97;5008964;28;20210;-69
2023/08/12 01:40:53;;;;;;;8.77;5.87;;;;;;;19.73;100.00;100221.88;4998830;28;20747;-69
2023/08/12 01:43:19;;;;;;;9.60;5.77;;;;;;;19.82;100.00;100227.06;5008963;28;20183;-69
2023/08/12 01:45:45;;;;;;;5.77;5.27;;;;;;;19.72;100.00;100225.44;5008536;28;20194;-68
2023/08/12 01:48:10;;;;;;;7.67;5.47;;;;;;;19.78;100.00;100230.09;5008835;28;20626;-68
2023/08/12 01:50:35;;;;;;;7.27;6.07;;;;;;;19.86;100.00;100226.81;4998594;28;20241;-68
2023/08/12 01:53:00;;;;;;;7.07;5.67;;;;;;;19.82;100.00;100229.69;5008308;28;20190;-68
2023/08/12 01:55:26;;;;;;;7.20;5.90;;;;;;;19.89;100.00;100227.34;5008471;28;20190;-67
2023/08/12 01:57:51;;;;;;;6.27;5.57;;;;;;;19.94;100.00;100232.16;5008580;28;20331;-67
2023/08/12 02:00:17;;;;;;;8.43;5.87;;;;;;;20.03;100.00;100228.69;4998464;28;20198;-67
2023/08/12 02:02:42;;;;;;;7.20;6.50;;;;;;;20.06;100.00;100215.34;5004117;28;20528;-68
2023/08/12 02:05:07;;;;;;;6.13;5.50;;;;;;;20.13;100.00;100221.66;5008272;28;20657;-68
2023/08/12 02:07:33;;;;;;;8.40;5.87;;;;;;;20.14;100.00;100225.91;5008299;28;20547;-68
2023/08/12 02:09:58;;;;;;;10.80;6.90;;;;;;;20.05;100.00;100234.59;5011226;28;20183;-68
2023/08/12 02:12:23;;;;;;;9.03;6.30;;;;;;;20.02;100.00;100247.09;5006894;28;20222;-68
2023/08/12 02:14:48;;;;;;;10.13;6.43;;;;;;;19.99;100.00;100250.81;5033753;28;20645;-67
2023/08/12 02:17:14;;;;;;;8.33;6.87;;;;;;;19.87;100.00;100262.41;5033873;28;20297;-67
2023/08/12 02:19:39;;;;;;;8.03;7.33;;;;;;;19.82;100.00;100261.00;5033790;28;20193;-67
2023/08/12 02:22:04;;;;;;;7.30;6.70;;;;;;;19.85;100.00;100254.72;5038758;28;20729;-67
2023/08/12 02:24:29;;;;;;;7.87;7.23;;;;;;;19.87;100.00;100268.47;5020255;28;20293;-67
2023/08/12 02:26:55;;;;;;;10.70;7.50;;;;;;;19.81;100.00;100269.78;5034152;28;20185;-67
2023/08/12 02:29:20;;;;;;;7.43;6.83;;;;;;;19.72;100.00;100282.84;5033911;28;20185;-67
2023/08/12 02:31:46;;;;;;;13.23;6.80;;;;;;;19.68;100.00;100295.34;5037068;28;20236;-68
2023/08/12 02:34:11;;;;;;;7.73;6.93;;;;;;;19.65;100.00;100311.31;5031827;28;20190;-69
2023/08/12 02:36:36;;;;;;;7.57;5.97;;;;;;;19.56;100.00;100330.38;5033732;28;20664;-67
2023/08/12 02:39:02;;;;;;;8.43;6.03;;;;;;;19.42;100.00;100329.00;5033577;28;20209;-67
2023/08/12 02:41:27;;;;;;;7.00;6.37;;;;;;;19.47;100.00;100317.22;5034312;28;20282;-68
2023/08/12 02:43:52;;;;;;;11.87;7.93;;;;;;;19.58;100.00;100304.97;5037787;28;20634;-67
2023/08/12 02:46:18;;;;;;;8.73;7.93;;;;;;;19.64;100.00;100294.81;5033301;28;20231;-68
2023/08/12 02:48:43;;;;;;;8.97;7.87;;;;;;;19.66;100.00;100287.66;5032072;28;20204;-68
2023/08/12 02:51:09;;;;;;;11.30;8.50;;;;;;;19.64;100.00;100300.03;5031833;28;20583;-67
2023/08/12 02:53:35;;;;;;;10.87;8.83;;;;;;;19.65;100.00;100303.47;5039942;28;20320;-67
2023/08/12 02:56:00;;;;;;;10.23;8.10;;;;;;;19.75;100.00;100303.47;5033095;28;20640;-67
2023/08/12 02:58:25;;;;;;;11.17;8.10;;;;;;;19.75;100.00;100293.03;5033126;28;20194;-68
2023/08/12 03:00:51;;;;;;;13.77;8.53;;;;;;;19.71;100.00;100296.84;5029335;28;20304;-68
2023/08/12 03:03:16;;;;;;;10.23;9.17;;;;;;;19.66;100.00;100292.88;5030564;28;20565;-68
2023/08/12 03:05:43;;;;;;;9.47;8.50;;;;;;;19.78;100.00;100295.34;5032593;28;20182;-66
2023/08/12 03:08:08;;;;;;;11.00;9.57;;;;;;;19.76;100.00;100292.88;5033450;28;20252;-67
2023/08/12 03:10:34;;;;;;;10.40;9.40;;;;;;;19.78;100.00;100279.69;5027045;28;20229;-67
2023/08/12 03:12:59;;;;;;;10.80;9.90;;;;;;;19.75;100.00;100265.13;5044258;28;20250;-68
2023/08/12 03:15:25;;;;;;;10.97;9.87;;;;;;;19.72;100.00;100273.25;5032555;28;20718;-68
2023/08/12 03:17:50;;;;;;;13.50;10.53;;;;;;;19.75;100.00;100287.81;5032783;28;20253;-69
2023/08/12 03:20:15;;;;;;;12.13;10.83;;;;;;;19.81;100.00;100297.69;5022269;28;20258;-68
2023/08/12 03:22:42;;;;;;;12.23;10.63;;;;;;;19.87;100.00;100286.72;5046175;28;20289;-68
2023/08/12 03:25:07;;;;;;;12.97;11.77;;;;;;;19.81;100.00;100295.91;5032456;28;20344;-69
2023/08/12 03:27:33;;;;;;;12.70;11.60;;;;;;;19.72;100.00;100280.25;5019758;28;20190;-67
2023/08/12 03:29:58;;;;;;;13.43;12.13;;;;;;;19.65;100.00;100264.34;5032805;28;20565;-68
2023/08/12 03:32:26;;;;;;;13.07;11.90;;;;;;;19.37;100.00;100235.50;5000605;28;20619;-69
2023/08/12 03:34:52;;;;;;;12.57;11.43;;;;;;;19.22;100.00;100209.00;5032500;28;20185;-68
2023/08/12 03:37:18;;;;;;;13.67;12.47;;;;;;;19.13;100.00;100217.66;5032785;28;20193;-68
2023/08/12 03:39:43;;;;;;;13.57;12.13;;;;;;;19.14;100.00;100234.97;5032159;28;20294;-68
2023/08/12 03:42:08;;;;;;;14.47;12.17;;;;;;;19.02;100.00;100224.63;5024239;28;20308;-69
2023/08/12 03:44:34;;;;;;;14.50;13.20;;;;;;;19.01;100.00;100219.56;5025884;28;20205;-68
2023/08/12 03:46:59;;;;;;;14.53;13.23;;;;;;;19.07;100.00;100239.88;5032453;28;20257;-70
2023/08/12 03:49:24;;;;;;;15.07;12.97;;;;;;;19.04;100.00;100224.53;5032636;28;20174;-69
2023/08/12 03:51:50;;;;;;;14.23;12.93;;;;;;;19.07;100.00;100242.47;5035058;28;20232;-69
2023/08/12 03:54:15;;;;;;;16.17;14.60;;;;;;;19.22;100.00;100245.50;5033407;28;20265;-69
2023/08/12 03:56:40;;;;;;;16.47;14.77;;;;;;;19.27;100.00;100238.09;5032351;28;20641;-68
2023/08/12 03:59:05;;;;;;;16.57;14.93;;;;;;;19.30;100.00;100237.00;5031988;28;20197;-68
2023/08/12 04:01:31;;;;;;;15.97;14.50;;;;;;;19.37;100.00;100227.66;5033543;28;20225;-68
2023/08/12 04:03:56;;;;;;;16.67;15.10;;;;;;;19.37;100.00;100227.66;5035235;28;20186;-68
2023/08/12 04:06:21;;;;;;;16.80;15.30;;;;;;;19.20;100.00;100229.16;5031706;28;20190;-68
2023/08/12 04:08:46;;;;;;;16.27;14.60;;;;;;;19.24;100.00;100234.94;5031876;28;20228;-68
2023/08/12 04:11:12;;;;;;;18.17;16.20;;;;;;;19.19;100.00;100227.53;5030852;28;20711;-69
2023/08/12 04:13:37;;;;;;;15.03;13.73;;;;;;;19.28;100.00;100223.28;5027945;28;20174;-67
2023/08/12 04:16:02;;;;;;;16.60;15.00;;;;;;;19.31;100.00;100215.19;5031739;28;20178;-70
2023/08/12 04:18:27;;;;;;;16.77;15.20;;;;;;;19.39;100.00;100209.25;5032153;28;20843;-70
2023/08/12 04:20:53;;;;;;;16.50;14.93;;;;;;;19.31;100.00;100210.81;5028548;28;20237;-69
2023/08/12 04:23:19;;;;;;;17.13;15.43;;;;;;;19.38;100.00;100207.66;5040302;28;20192;-69
2023/08/12 04:25:46;;;;;;;18.00;16.00;;;;;;;19.36;100.00;100210.38;5031245;28;20178;-69
2023/08/12 04:28:12;;;;;;;17.93;16.10;;;;;;;19.32;100.00;100206.41;5031637;28;20232;-69
2023/08/12 04:30:45;;;;;;;18.53;16.70;;;;;;;19.29;100.00;100199.69;5033737;28;20233;-69
2023/08/12 04:33:12;;;;;;;18.57;16.90;;;;;;;19.44;100.00;100196.66;5041422;28;20185;-67
2023/08/12 04:35:38;;;;;;;18.87;16.93;;;;;;;19.47;100.00;100199.81;5031207;28;20188;-67
2023/08/12 04:38:03;;;;;;;19.27;17.20;;;;;;;19.41;100.00;100189.94;5031621;28;20205;-69
2023/08/12 04:40:29;;;;;;;19.23;17.33;;;;;;;19.39;100.00;100193.63;5025334;28;20229;-69
2023/08/12 04:42:54;;;;;;;19.13;16.80;;;;;;;19.38;100.00;100198.03;5042983;28;20188;-70
2023/08/12 04:45:19;;;;;;;19.83;16.37;;;;;;;19.37;100.00;100201.59;5031113;28;20186;-69
2023/08/12 04:47:45;;;;;;;18.30;16.50;;;;;;;19.13;100.00;100197.63;5030069;28;20261;-70
2023/08/12 04:50:10;;;;;;;18.67;16.63;;;;;;;19.00;100.00;100203.09;5022345;28;20549;-68
2023/08/12 04:52:35;;;;;;;19.27;17.40;;;;;;;18.98;100.00;100202.41;5044873;28;20180;-68
2023/08/12 04:55:01;;;;;;;17.00;15.53;;;;;;;19.12;100.00;100197.75;5031097;28;20182;-69
2023/08/12 04:57:26;;;;;;;17.73;15.97;;;;;;;19.28;100.00;100192.81;5031316;28;20264;-70
2023/08/12 04:59:54;;;;;;;17.57;15.63;;;;;;;19.27;100.00;100190.34;5031095;28;20213;-70
2023/08/12 05:02:20;;;;;;;20.03;18.10;;;;;;;19.26;100.00;100188.69;5036703;28;20279;-70
2023/08/12 05:04:50;;;;;;;19.20;17.40;;;;;;;19.19;100.00;100206.69;5031089;28;20277;-70
2023/08/12 05:07:15;;;;;;;18.00;16.33;;;;;;;19.21;100.00;100199.53;5029806;28;20178;-70
2023/08/12 05:09:43;;;;;;;18.90;16.83;;;;;;;19.28;100.00;100192.00;5030917;28;20578;-71
2023/08/12 05:12:09;;;;;;;19.03;17.13;;;;;;;19.24;100.00;100188.84;5021196;28;20304;-71
2023/08/12 05:14:34;;;;;;;19.57;17.03;;;;;;;19.12;100.00;100202.97;5030088;28;20262;-71
2023/08/12 05:16:59;;;;;;;19.57;17.53;;;;;;;18.95;100.00;100196.66;5031532;28;20573;-70
2023/08/12 05:19:25;;;;;;;21.37;17.50;;;;;;;19.02;100.00;100202.97;5031380;28;20198;-71
2023/08/12 05:21:50;;;;;;;20.20;18.10;;;;;;;19.08;100.00;100197.22;5025461;28;20217;-71
2023/08/12 05:24:15;;;;;;;19.53;17.63;;;;;;;19.13;100.00;100200.22;5031076;28;20652;-70
2023/08/12 05:26:40;;;;;;;21.53;17.87;;;;;;;19.18;100.00;100199.81;5042026;28;20184;-70
2023/08/12 05:29:06;;;;;;;18.73;16.93;;;;;;;19.18;100.00;100203.25;5029414;28;20178;-70
2023/08/12 05:31:31;;;;;;;19.70;17.57;;;;;;;19.25;100.00;100200.94;5023471;28;20549;-70
2023/08/12 05:33:56;;;;;;;20.00;18.03;;;;;;;19.32;100.00;100204.59;5031814;28;20189;-69
2023/08/12 05:36:21;;;;;;;19.87;16.80;;;;;;;19.39;100.00;100206.66;5029334;28;20174;-70
2023/08/12 05:38:47;;;;;;;19.10;17.17;;;;;;;19.57;100.00;100209.41;5030942;28;20237;-70
2023/08/12 05:41:12;;;;;;;18.40;16.47;;;;;;;19.65;100.00;100218.16;5026857;28;20218;-69
2023/08/12 05:43:37;;;;;;;16.43;15.03;;;;;;;19.70;100.00;100219.53;5036604;28;20185;-67
2023/08/12 05:46:02;;;;;;;15.50;14.10;;;;;;;19.54;100.00;100220.94;5034771;28;20190;-69
2023/08/12 05:48:28;;;;;;;15.93;14.40;;;;;;;19.70;100.00;100228.19;5035096;28;20194;-69
2023/08/12 05:50:53;;;;;;;15.47;14.17;;;;;;;19.92;100.00;100234.91;5023650;28;20252;-69
2023/08/12 05:53:18;;;;;;;16.23;14.17;;;;;;;20.12;100.00;100219.19;5031874;28;20541;-69
2023/08/12 05:55:43;;;;;;;15.07;13.53;;;;;;;20.05;100.00;100226.75;5033685;28;20182;-69
2023/08/12 05:58:09;;;;;;;15.07;13.67;;;;;;;20.23;100.00;100224.25;5034687;28;20206;-69
2023/08/12 06:00:34;;;;;;;14.47;13.03;;;;;;;20.30;100.00;100222.72;5028504;28;20637;-69
2023/08/12 06:02:59;;;;;;;16.33;13.37;;;;;;;20.30;100.00;100227.94;5033264;28;20185;-69
2023/08/12 06:05:24;;;;;;;13.57;12.17;;;;;;;20.56;100.00;100227.22;5033953;28;20188;-69
2023/08/12 06:07:50;;;;;;;13.03;11.47;;;;;;;20.68;100.00;100227.88;5034586;28;20524;-68
2023/08/12 06:10:15;;;;;;;12.87;11.77;;;;;;;20.66;100.00;100226.38;5025924;28;20174;-69
2023/08/12 06:12:40;;;;;;;12.20;11.03;;;;;;;20.97;100.00;100219.03;5044126;28;20182;-67
2023/08/12 06:15:06;;;;;;;12.30;11.10;;;;;;;21.40;100.00;100225.31;5033366;28;20182;-68
2023/08/12 06:17:31;;;;;;;11.17;10.17;;;;;;;21.79;100.00;100218.09;5034299;28;20274;-67
2023/08/12 06:19:56;;;;;;;10.97;9.87;;;;;;;22.43;100.00;100213.38;5033660;28;20213;-68
2023/08/12 06:22:22;;;;;;;9.87;8.97;;;;;;;22.65;100.00;100211.13;5039034;28;20243;-68
2023/08/12 06:24:47;;;;;;;9.63;8.77;;;;;;;22.68;100.00;100209.00;5033551;28;20178;-68
2023/08/12 06:27:12;;;;;;;9.50;8.67;;;;;;;23.00;100.00;100217.91;5034063;28;20955;-68
2023/08/12 06:29:38;;;;;;;8.70;7.80;;;;;;;23.68;100.00;100215.97;5033393;28;20186;-68
2023/08/12 06:32:03;;;;;;;8.33;7.53;;;;;;;24.23;100.00;100210.13;5025605;28;20613;-69
2023/08/12 06:34:28;;;;;;;8.50;7.80;;;;;;;23.75;100.00;100216.13;5026351;28;20182;-68
2023/08/12 06:36:53;;;;;;;9.37;8.30;;;;;;;23.71;100.00;100219.25;5033784;28;20177;-69
2023/08/12 06:39:19;;;;;;;9.27;7.33;;;;;;;23.90;100.00;100225.94;5033856;28;20201;-68
2023/08/12 06:41:44;;;;;;;8.02;7.22;;;;;;;23.71;100.00;100232.41;5036235;28;20220;-68
2023/08/12 06:44:09;;;;;;;10.27;8.20;;;;;;;23.81;100.00;100227.78;5035749;28;20513;-67
2023/08/12 06:46:34;;;;;;;8.37;7.67;;;;;;;24.47;100.00;100219.69;5032345;28;20205;-68
2023/08/12 06:49:00;;;;;;;7.70;6.95;;;;;;;26.29;100.00;100224.31;5031071;28;20637;-68
2023/08/12 06:51:25;;;;;;;7.22;6.53;;;;;;;26.38;100.00;100219.75;5023193;28;20221;-68
2023/08/12 06:53:50;;;;;;;8.73;6.85;;;;;;;26.30;100.00;100225.94;5036511;28;20190;-68
2023/08/12 06:56:15;;;;;;;8.23;7.25;;;;;;;26.37;100.00;100236.56;5038171;28;20177;-69
2023/08/12 06:58:41;;;;;;;7.53;6.75;;;;;;;26.32;100.00;100231.03;5035148;28;20199;-69
2023/08/12 07:01:06;;;;;;;8.00;7.20;;;;;;;26.20;100.00;100233.34;5031678;28;20614;-69
2023/08/12 07:03:32;;;;;;;9.43;6.75;;;;;;;26.23;100.00;100238.22;5028644;28;20178;-68
2023/08/12 07:05:57;;;;;;;7.15;6.55;;;;;;;25.89;100.00;100248.28;5032545;28;20198;-69
2023/08/12 07:08:23;;;;;;;7.57;6.88;;;;;;;25.88;100.00;100235.31;5033047;28;20217;-69
2023/08/12 07:10:48;;;;;;;12.43;6.75;;;;;;;26.04;100.00;100235.13;5028897;28;20229;-69
2023/08/12 07:13:13;;;;;;;7.20;6.60;;;;;;;26.01;100.00;100229.38;5040694;28;20656;-69
2023/08/12 07:15:38;;;;;;;6.60;5.85;;;;;;;26.03;100.00;100222.94;5031128;28;20243;-68
2023/08/12 07:18:04;;;;;;;6.25;5.65;;;;;;;26.23;100.00;100227.69;5031657;28;20292;-68
2023/08/12 07:20:29;;;;;;;6.63;6.03;;;;;;;26.20;100.00;100225.44;5026085;28;20225;-67
2023/08/12 07:22:55;;;;;;;6.25;5.60;;;;;;;26.08;100.00;100220.59;5039657;28;20816;-67
2023/08/12 07:25:21;;;;;;;6.80;5.07;;;;;;;26.98;100.00;100224.88;5031600;28;20198;-68
2023/08/12 07:27:46;;;;;;;7.45;5.00;;;;;;;29.09;100.00;100228.28;5036313;28;20652;-68
2023/08/12 07:30:12;;;;;;;4.70;4.40;;;;;;;29.08;100.00;100234.59;5005136;28;20232;-67
2023/08/12 07:32:38;;;;;;;5.63;3.92;;;;;;;29.26;100.00;100237.44;5051485;28;20186;-67
2023/08/12 07:35:05;;;;;;;4.80;4.40;;;;;;;28.48;100.00;100227.28;5031420;28;20182;-62
2023/08/12 07:37:31;;;;;;;5.38;4.90;;;;;;;27.57;100.00;100226.41;5032669;28;20186;-67
2023/08/12 07:39:56;;;;;;;7.95;5.45;;;;;;;26.45;100.00;100220.66;5031920;28;20210;-68
2023/08/12 07:42:21;;;;;;;9.95;6.22;;;;;;;25.63;100.00;100230.28;5036424;28;20263;-68
2023/08/12 07:44:47;;;;;;;6.20;5.60;;;;;;;25.59;100.00;100231.66;5031795;28;20170;-67
2023/08/12 07:47:12;;;;;;;6.45;5.78;;;;;;;25.58;100.00;100236.06;5031681;28;20189;-67
2023/08/12 07:49:38;;;;;;;5.78;5.28;;;;;;;25.10;100.00;100232.81;5030924;28;20193;-67
2023/08/12 07:52:03;;;;;;;5.95;5.38;;;;;;;25.43;100.00;100222.88;5037572;28;20225;-67
2023/08/12 07:54:29;;;;;;;7.80;5.68;;;;;;;25.58;100.00;100214.19;5030775;28;20196;-67
2023/08/12 07:56:54;;;;;;;6.63;5.20;;;;;;;25.94;100.00;100213.50;5030818;28;20272;-67
2023/08/12 07:59:20;;;;;;;5.15;4.75;;;;;;;26.94;100.00;100223.63;5030809;28;20279;-67
2023/08/12 08:01:45;;;;;;;4.45;4.10;;;;;;;28.72;100.00;100220.69;5035343;28;20229;-68
2023/08/12 08:04:11;;;;;;;6.05;4.68;;;;;;;30.10;100.00;100215.72;5019115;28;20185;-67
2023/08/12 08:06:36;;;;;;;5.50;4.95;;;;;;;30.41;100.00;100228.22;5031551;28;20201;-67
2023/08/12 08:09:03;;;;;;;4.95;4.50;;;;;;;29.78;100.00;100229.69;5030687;28;20214;-73
2023/08/12 08:11:30;;;;;;;5.00;4.50;;;;;;;30.05;100.00;100234.13;5017600;28;20258;-67
2023/08/12 08:13:55;;;;;;;8.55;5.65;;;;;;;29.03;100.00;100240.47;5034271;28;20182;-67
2023/08/12 08:16:20;;;;;;;5.90;4.93;;;;;;;28.51;100.00;100243.59;5024834;28;20198;-67
2023/08/12 08:18:46;;;;;;;5.35;4.80;;;;;;;27.63;100.00;100244.13;5029455;28;20225;-68
2023/08/12 08:21:11;;;;;;;6.82;4.80;;;;;;;29.87;100.00;100240.03;5024787;28;20693;-68
2023/08/12 08:23:36;;;;;;;4.85;4.22;;;;;;;31.41;100.00;100227.81;5029264;28;20263;-68
2023/08/12 08:26:02;;;;;;;5.45;4.32;;;;;;;33.68;88.35;100228.47;5031306;28;20265;-68
2023/08/12 08:28:27;;;;;;;5.60;4.32;;;;;;;33.40;86.74;100230.81;5031760;28;20212;-68
2023/08/12 08:30:53;;;;;;;5.15;4.47;;;;;;;32.38;92.03;100234.38;5022228;28;20222;-68
2023/08/12 08:33:18;;;;;;;4.97;4.15;;;;;;;31.80;96.67;100241.78;5037719;28;20275;-68
2023/08/12 08:35:43;;;;;;;5.53;5.00;;;;;;;30.63;100.00;100221.84;5029615;28;20178;-67
2023/08/12 08:38:09;;;;;;;5.80;4.45;;;;;;;28.96;100.00;100215.81;5031545;28;20186;-67
2023/08/12 08:40:34;;;;;;;5.57;4.53;;;;;;;28.28;100.00;100214.84;5025487;28;20249;-67
2023/08/12 08:43:03;;;;;;;5.15;4.65;;;;;;;27.62;100.00;100218.72;5035990;28;20631;-67
2023/08/12 08:45:32;;;;;;;8.10;5.00;;;;;;;26.64;100.00;100207.88;5030012;28;20189;-67
2023/08/12 08:48:00;;;;;;;5.80;5.13;;;;;;;26.39;100.00;100198.47;5031710;28;20185;-66
2023/08/12 08:50:26;;;;;;;5.50;4.93;;;;;;;26.71;100.00;100192.94;5024050;28;20233;-68
2023/08/12 08:52:52;;;;;;;4.93;4.50;;;;;;;26.81;100.00;100197.94;5023405;28;20182;-68
2023/08/12 08:55:18;;;;;;;6.35;4.70;;;;;;;26.99;100.00;100194.84;5030951;28;20622;-67
2023/08/12 08:57:46;;;;;;;4.75;4.22;;;;;;;27.24;100.00;100213.75;5031210;28;20629;-68
2023/08/12 09:00:12;;;;;;;5.40;4.90;;;;;;;27.15;100.00;100213.06;5022488;28;20209;-67
2023/08/12 09:02:38;;;;;;;6.22;4.43;;;;;;;27.32;100.00;100210.16;5045167;28;20186;-67
2023/08/12 09:05:04;;;;;;;7.25;4.30;;;;;;;27.67;100.00;100208.41;5029710;28;20186;-67
2023/08/12 09:07:31;;;;;;;5.00;4.50;;;;;;;27.84;100.00;100206.25;5031179;28;20185;-67
2023/08/12 09:10:00;;;;;;;4.50;4.10;;;;;;;27.79;100.00;100202.56;5031052;28;20440;-67
2023/08/12 09:12:25;;;;;;;4.13;3.83;;;;;;;28.56;100.00;100194.56;5020805;28;20226;-67
2023/08/12 09:14:51;;;;;;;5.03;4.43;;;;;;;28.57;100.00;100189.06;5030909;28;20259;-68
2023/08/12 09:17:16;;;;;;;4.47;3.95;;;;;;;28.51;100.00;100179.28;5031208;28;20248;-68
2023/08/12 09:19:41;;;;;;;6.60;4.47;;;;;;;28.47;100.00;100184.16;5033840;28;20237;-68
2023/08/12 09:22:09;;;;;;;4.68;3.65;;;;;;;27.61;100.00;100185.41;5039829;28;20243;-68
2023/08/12 09:24:34;;;;;;;4.88;4.47;;;;;;;28.32;100.00;100180.88;5034862;28;20327;-68
2023/08/12 09:27:00;;;;;;;5.10;3.78;;;;;;;30.07;100.00;100202.91;5035068;28;20193;-67
2023/08/12 09:29:33;;;;;;;6.03;4.00;;;;;;;29.74;100.00;100201.13;5035114;28;20197;-67
2023/08/12 09:32:11;;;;;;;4.32;3.92;;;;;;;29.49;100.00;100193.84;5027280;28;20221;-67
2023/08/12 09:34:37;;;;;;;4.43;4.00;;;;;;;29.41;100.00;100194.88;5030946;28;20197;-67
2023/08/12 09:37:03;;;;;;;4.57;4.18;;;;;;;29.81;100.00;100196.63;5034810;28;20185;-67
2023/08/12 09:39:30;;;;;;;6.28;4.10;;;;;;;29.63;100.00;100197.28;5034833;28;20320;-67
2023/08/12 09:41:56;;;;;;;5.28;3.75;;;;;;;29.12;100.00;100199.53;5037755;28;20646;-67
2023/08/12 09:44:22;;;;;;;3.90;3.50;;;;;;;28.71;100.00;100199.72;5034804;28;20197;-75
2023/08/12 09:46:48;;;;;;;5.00;3.42;;;;;;;28.16;100.00;100203.19;5031540;28;20174;-74
2023/08/12 09:49:13;;;;;;;5.18;3.90;;;;;;;26.16;100.00;100193.34;5034483;28;20257;-78
2023/08/12 09:51:41;;;;;;;4.50;4.03;;;;;;;24.26;100.00;100212.38;5036823;28;20260;-76
2023/08/12 09:54:09;;;;;;;4.53;4.13;;;;;;;23.33;100.00;100235.50;5020317;28;20579;-77
2023/08/12 09:56:36;;;;;;;5.18;4.50;;;;;;;23.11;100.00;100237.78;5027395;28;20191;-79
2023/08/12 09:59:05;;;;;;;4.75;4.00;;;;;;;22.98;100.00;100229.56;5031075;28;20222;-79
2023/08/12 10:01:30;;;;;;;5.20;3.58;;;;;;;22.72;100.00;100236.56;5036912;28;20241;-79
2023/08/12 10:03:56;;;;;;;5.43;4.38;;;;;;;22.53;100.00;100252.56;5033743;28;20264;-77
2023/08/12 10:06:22;;;;;;;5.63;3.93;;;;;;;22.15;100.00;100265.13;5028096;28;20201;-78
2023/08/12 10:08:48;;;;;;;4.47;4.07;;;;;;;22.07;100.00;100294.72;5026487;28;20178;-80
2023/08/12 10:11:15;;;;;;;7.77;4.77;;;;;;;22.00;100.00;100318.06;5024680;28;20333;-73
2023/08/12 10:13:41;;;;;;;5.20;4.70;;;;;;;21.87;100.00;100330.75;5029801;28;20190;-71
2023/08/12 10:16:06;;;;;;;5.77;4.23;;;;;;;21.68;100.00;100329.94;5020914;28;20240;-71
2023/08/12 10:18:34;;;;;;;8.03;5.00;;;;;;;21.58;100.00;100332.63;5031864;28;20279;-71
2023/08/12 10:21:00;;;;;;;5.20;4.70;;;;;;;21.48;100.00;100299.63;5025852;28;20321;-71
2023/08/12 10:23:25;;;;;;;6.87;4.23;;;;;;;21.49;100.00;100280.34;5028549;28;20277;-69
2023/08/12 10:25:54;;;;;;;5.63;3.90;;;;;;;21.40;100.00;100271.59;5033611;28;20190;-70
2023/08/12 10:28:20;;;;;;;5.03;4.13;;;;;;;21.37;100.00;100261.41;5027602;28;20634;-70
2023/08/12 10:30:46;;;;;;;6.93;4.50;;;;;;;21.02;100.00;100278.75;5028569;28;20236;-77
2023/08/12 10:33:16;;;;;;;5.47;4.53;;;;;;;20.93;100.00;100283.88;5036813;28;20231;-73
2023/08/12 10:35:48;;;;;;;6.20;4.20;;;;;;;20.82;100.00;100275.44;5031260;28;20190;-74
2023/08/12 10:38:16;;;;;;;10.13;4.30;;;;;;;20.81;100.00;100271.97;5024701;28;20525;-74
2023/08/12 10:40:42;;;;;;;7.40;4.20;;;;;;;20.90;100.00;100275.50;5020152;28;20599;-74
2023/08/12 10:43:07;;;;;;;4.13;3.73;;;;;;;20.94;100.00;100271.66;5039529;28;20283;-74
2023/08/12 10:45:49;;;;;;;4.50;3.87;;;;;;;20.90;100.00;100260.66;5031575;28;20325;-74
2023/08/12 10:48:22;;;;;;;3.63;3.33;;;;;;;20.76;100.00;100245.47;5032602;28;20205;-75
2023/08/12 10:50:55;;;;;;;4.87;3.53;;;;;;;20.56;100.00;100236.88;5023332;28;20296;-75
2023/08/12 10:53:20;;;;;;;5.33;3.40;;;;;;;20.70;100.00;100241.63;5032712;28;20185;-75
2023/08/12 10:55:48;;;;;;;3.50;3.20;;;;;;;20.89;100.00;100239.91;5025967;28;20186;-77
2023/08/12 10:58:25;;;;;;;4.23;3.90;;;;;;;21.07;100.00;100222.44;5033723;28;20232;-76
2023/08/12 11:00:55;;;;;;;6.53;3.90;;;;;;;21.17;100.00;100224.13;5021610;28;20233;-77
2023/08/12 11:03:20;;;;;;;4.60;4.00;;;;;;;21.56;100.00;100223.84;5032544;28;20591;-75
2023/08/12 11:05:46;;;;;;;4.10;3.70;;;;;;;21.74;100.00;100215.94;5025222;28;20185;-74
2023/08/12 11:08:13;;;;;;;6.97;3.93;;;;;;;21.97;100.00;100208.38;5032016;28;20174;-73